createdAt,value
2022-09-29T00:02:12.820Z,2.05
2022-09-29T00:04:39.988Z,1.65
2022-09-29T00:07:07.073Z,1.88
2022-09-29T00:09:34.189Z,2.20
2022-09-29T00:12:01.354Z,1.73
2022-09-29T00:14:28.462Z,2.05
2022-09-29T00:16:55.899Z,1.85
2022-09-29T00:19:22.974Z,1.80
2022-09-29T00:21:50.067Z,2.22
2022-09-29T00:24:17.233Z,2.05
2022-09-29T00:26:46.739Z,2.00
2022-09-29T00:29:15.131Z,1.75
2022-09-29T00:31:42.246Z,1.92
2022-09-29T00:34:09.340Z,1.80
2022-09-29T00:36:36.426Z,1.60
2022-09-29T00:39:03.642Z,2.00
2022-09-29T00:41:33.926Z,1.70
2022-09-29T00:44:26.856Z,1.60
2022-09-29T00:46:57.111Z,1.77
2022-09-29T00:49:27.282Z,1.77
2022-09-29T00:51:54.403Z,1.77
2022-09-29T00:54:21.925Z,1.65
2022-09-29T00:56:50.194Z,2.20
2022-09-29T00:59:21.892Z,1.90
2022-09-29T01:01:49.059Z,2.25
2022-09-29T01:04:17.905Z,2.20
2022-09-29T01:06:48.535Z,1.92
2022-09-29T01:09:17.975Z,2.20
2022-09-29T01:11:45.883Z,1.80
2022-09-29T01:14:13.472Z,1.92
2022-09-29T01:16:41.964Z,2.17
2022-09-29T01:19:15.317Z,1.98
2022-09-29T01:21:54.031Z,2.05
2022-09-29T01:24:27.028Z,1.95
2022-09-29T01:27:14.522Z,1.83
2022-09-29T01:29:55.670Z,2.15
2022-09-29T01:32:22.747Z,2.25
2022-09-29T01:34:55.795Z,1.70
2022-09-29T01:37:35.356Z,2.03
2022-09-29T01:40:19.693Z,2.20
2022-09-29T01:42:53.259Z,2.10
2022-09-29T01:45:30.254Z,2.25
2022-09-29T01:48:01.001Z,2.22
2022-09-29T01:50:30.750Z,2.28
2022-09-29T01:53:02.189Z,2.17
2022-09-29T01:55:31.613Z,2.05
2022-09-29T01:58:01.378Z,2.63
2022-09-29T02:00:31.886Z,2.17
2022-09-29T02:03:09.098Z,2.40
2022-09-29T02:05:41.187Z,1.95
2022-09-29T02:08:12.190Z,2.25
2022-09-29T02:10:42.030Z,2.40
2022-09-29T02:13:10.604Z,2.20
2022-09-29T02:15:38.779Z,2.40
2022-09-29T02:18:12.463Z,2.70
2022-09-29T02:20:39.566Z,2.22
2022-09-29T02:23:06.666Z,2.60
2022-09-29T02:25:35.943Z,2.08
2022-09-29T02:28:03.084Z,2.85
2022-09-29T02:30:30.172Z,2.33
2022-09-29T02:32:57.287Z,2.63
2022-09-29T02:35:25.675Z,2.45
2022-09-29T02:37:58.664Z,2.13
2022-09-29T02:40:44.470Z,2.50
2022-09-29T02:43:27.707Z,2.20
2022-09-29T02:46:07.351Z,2.10
2022-09-29T02:49:00.260Z,2.35
2022-09-29T02:51:35.289Z,2.20
2022-09-29T02:54:23.102Z,2.00
2022-09-29T02:57:05.674Z,2.15
2022-09-29T02:59:52.528Z,2.13
2022-09-29T03:02:26.749Z,2.22
2022-09-29T03:04:54.270Z,2.40
2022-09-29T03:07:22.225Z,2.25
2022-09-29T03:09:50.788Z,2.00
2022-09-29T03:12:20.898Z,2.17
2022-09-29T03:14:47.970Z,2.17
2022-09-29T03:17:15.080Z,2.30
2022-09-29T03:19:42.150Z,2.40
2022-09-29T03:22:09.221Z,2.03
2022-09-29T03:24:36.347Z,2.17
2022-09-29T03:27:04.432Z,2.60
2022-09-29T03:29:31.498Z,2.20
2022-09-29T03:32:01.699Z,2.50
2022-09-29T03:34:29.063Z,2.55
2022-09-29T03:36:56.765Z,2.67
2022-09-29T03:39:26.440Z,2.70
2022-09-29T03:41:53.821Z,2.22
2022-09-29T03:44:20.941Z,2.35
2022-09-29T03:46:48.051Z,2.42
2022-09-29T03:49:15.752Z,2.38
2022-09-29T03:51:43.619Z,2.50
2022-09-29T03:54:11.094Z,2.30
2022-09-29T03:56:38.441Z,2.40
2022-09-29T03:59:08.456Z,2.38
2022-09-29T04:01:36.209Z,2.25
2022-09-29T04:04:03.338Z,2.10
2022-09-29T04:06:30.719Z,2.20
2022-09-29T04:08:57.789Z,1.80
2022-09-29T04:11:24.862Z,2.05
2022-09-29T04:13:52.562Z,2.38
2022-09-29T04:16:19.721Z,2.30
2022-09-29T04:18:47.054Z,2.05
2022-09-29T04:21:14.131Z,2.15
2022-09-29T04:23:41.735Z,2.60
2022-09-29T04:26:08.805Z,2.15
2022-09-29T04:28:36.891Z,2.03
2022-09-29T04:31:04.381Z,2.22
2022-09-29T04:33:31.544Z,2.30
2022-09-29T04:35:59.351Z,1.98
2022-09-29T04:38:26.675Z,2.60
2022-09-29T04:40:54.806Z,2.13
2022-09-29T04:43:22.049Z,2.03
2022-09-29T04:45:49.179Z,3.00
2022-09-29T04:48:16.325Z,2.97
2022-09-29T04:50:43.686Z,2.38
2022-09-29T04:53:10.841Z,2.45
2022-09-29T04:55:38.566Z,2.90
2022-09-29T04:58:05.722Z,2.53
2022-09-29T05:00:33.280Z,2.22
2022-09-29T05:03:00.845Z,2.20
2022-09-29T05:05:28.006Z,2.58
2022-09-29T05:07:55.084Z,2.03
2022-09-29T05:10:22.241Z,2.20
2022-09-29T05:12:50.243Z,1.92
2022-09-29T05:15:22.120Z,2.08
2022-09-29T05:17:52.063Z,2.20
2022-09-29T05:20:19.171Z,2.58
2022-09-29T05:22:46.249Z,2.10
2022-09-29T05:25:13.333Z,2.42
2022-09-29T05:27:40.408Z,2.28
2022-09-29T05:30:07.790Z,2.03
2022-09-29T05:32:34.940Z,1.90
2022-09-29T05:35:02.647Z,1.92
2022-09-29T05:37:29.797Z,2.25
2022-09-29T05:39:56.876Z,2.10
2022-09-29T05:42:25.575Z,2.20
2022-09-29T05:44:52.646Z,1.70
2022-09-29T05:47:19.790Z,2.10
2022-09-29T05:49:46.860Z,2.05
2022-09-29T05:52:14.122Z,2.13
2022-09-29T05:54:41.272Z,2.15
2022-09-29T05:57:08.377Z,3.13
2022-09-29T05:59:35.523Z,1.67
2022-09-29T06:02:02.634Z,1.90
2022-09-29T06:04:29.804Z,2.20
2022-09-29T06:06:57.218Z,2.00
2022-09-29T06:09:24.296Z,2.00
2022-09-29T06:11:51.339Z,2.20
2022-09-29T06:14:18.422Z,2.03
2022-09-29T06:16:45.808Z,1.95
2022-09-29T06:19:13.874Z,1.85
2022-09-29T06:21:40.982Z,2.05
2022-09-29T06:24:08.162Z,2.30
2022-09-29T06:26:35.576Z,2.15
2022-09-29T06:29:02.812Z,1.92
2022-09-29T06:31:31.064Z,1.92
2022-09-29T06:33:59.191Z,2.13
2022-09-29T06:36:47.862Z,2.40
2022-09-29T06:39:15.472Z,2.20
2022-09-29T06:41:44.492Z,2.22
2022-09-29T06:44:11.697Z,2.10
2022-09-29T06:46:41.703Z,1.95
2022-09-29T06:49:08.790Z,2.10
2022-09-29T06:51:45.141Z,2.10
2022-09-29T06:54:13.624Z,2.28
2022-09-29T06:56:41.112Z,2.38
2022-09-29T06:59:09.369Z,2.00
2022-09-29T07:01:36.502Z,1.92
2022-09-29T07:04:03.709Z,2.00
2022-09-29T07:06:31.213Z,2.20
2022-09-29T07:08:59.219Z,2.20
2022-09-29T07:11:26.676Z,2.17
2022-09-29T07:13:54.855Z,1.83
2022-09-29T07:16:25.428Z,1.92
2022-09-29T07:18:53.366Z,2.72
2022-09-29T07:21:21.481Z,2.15
2022-09-29T07:23:48.941Z,2.70
2022-09-29T07:26:16.856Z,2.10
2022-09-29T07:28:44.411Z,2.38
2022-09-29T07:31:15.543Z,2.42
2022-09-29T07:33:45.356Z,2.40
2022-09-29T07:36:12.930Z,1.77
2022-09-29T07:38:40.244Z,2.42
2022-09-29T07:41:08.601Z,2.08
2022-09-29T07:43:37.997Z,2.15
2022-09-29T07:46:05.781Z,2.30
2022-09-29T07:48:33.789Z,2.50
2022-09-29T07:51:19.944Z,2.45
2022-09-29T07:53:47.821Z,2.30
2022-09-29T07:56:14.875Z,2.50
2022-09-29T07:58:42.222Z,2.50
2022-09-29T08:01:13.434Z,3.15
2022-09-29T08:03:41.840Z,2.35
2022-09-29T08:06:09.417Z,2.42
2022-09-29T08:08:37.225Z,2.60
2022-09-29T08:11:05.265Z,2.85
2022-09-29T08:13:33.665Z,2.78
2022-09-29T08:16:01.291Z,2.65
2022-09-29T08:18:29.192Z,2.55
2022-09-29T08:20:59.954Z,2.55
2022-09-29T08:23:31.745Z,2.83
2022-09-29T08:26:05.932Z,2.90
2022-09-29T08:28:34.107Z,2.72
2022-09-29T08:31:08.401Z,2.80
2022-09-29T08:33:35.917Z,2.50
2022-09-29T08:36:14.382Z,2.33
2022-09-29T08:38:43.644Z,2.63
2022-09-29T08:41:20.948Z,3.00
2022-09-29T08:43:48.788Z,2.42
2022-09-29T08:46:35.951Z,3.00
2022-09-29T08:49:07.154Z,2.80
2022-09-29T08:51:42.665Z,2.90
2022-09-29T08:54:38.452Z,2.92
2022-09-29T08:57:06.741Z,2.38
2022-09-29T08:59:33.894Z,2.70
2022-09-29T09:02:36.400Z,3.05
2022-09-29T09:05:39.515Z,3.10
2022-09-29T09:08:07.110Z,2.42
2022-09-29T09:10:37.038Z,2.72
2022-09-29T09:13:10.240Z,2.45
2022-09-29T09:15:40.258Z,2.40
2022-09-29T09:18:10.178Z,2.85
2022-09-29T09:20:41.270Z,2.80
2022-09-29T09:23:14.308Z,2.53
2022-09-29T09:25:45.613Z,2.50
2022-09-29T09:28:17.670Z,2.40
2022-09-29T09:30:47.385Z,2.60
2022-09-29T09:33:30.349Z,2.20
2022-09-29T09:36:31.611Z,2.33
2022-09-29T09:39:07.049Z,2.70
2022-09-29T09:41:36.704Z,2.30
2022-09-29T09:44:06.838Z,2.20
2022-09-29T09:46:39.647Z,2.20
2022-09-29T09:49:14.868Z,2.50
2022-09-29T09:51:41.927Z,2.30
2022-09-29T09:54:14.385Z,2.42
2022-09-29T09:57:04.966Z,2.00
2022-09-29T09:59:32.027Z,1.90
2022-09-29T10:01:59.362Z,2.20
2022-09-29T10:04:28.421Z,2.25
2022-09-29T10:06:56.238Z,2.00
2022-09-29T10:09:24.030Z,2.00
2022-09-29T10:11:51.503Z,1.92
2022-09-29T10:14:28.147Z,1.67
2022-09-29T10:17:07.164Z,1.77
2022-09-29T10:19:53.929Z,1.88
2022-09-29T10:22:22.461Z,1.88
2022-09-29T10:24:49.599Z,1.63
2022-09-29T10:27:21.506Z,1.50
2022-09-29T10:29:53.109Z,1.83
2022-09-29T10:32:20.230Z,2.05
2022-09-29T10:34:49.851Z,2.10
2022-09-29T10:37:20.640Z,1.52
2022-09-29T10:39:48.509Z,1.80
2022-09-29T10:42:32.384Z,1.88
2022-09-29T10:45:05.888Z,1.90
2022-09-29T10:47:33.516Z,1.55
2022-09-29T10:50:09.763Z,1.70
2022-09-29T10:52:37.407Z,1.60
2022-09-29T10:55:05.121Z,1.33
2022-09-29T10:57:33.694Z,1.63
2022-09-29T11:00:00.942Z,1.85
2022-09-29T11:02:32.091Z,1.73
2022-09-29T11:05:00.940Z,1.33
2022-09-29T11:07:28.533Z,1.67
2022-09-29T11:09:55.872Z,1.55
2022-09-29T11:12:32.158Z,1.65
2022-09-29T11:15:00.414Z,1.50
2022-09-29T11:17:32.099Z,1.67
2022-09-29T11:20:00.475Z,1.65
2022-09-29T11:22:27.766Z,1.88
2022-09-29T11:25:00.839Z,2.00
2022-09-29T11:27:46.448Z,1.50
2022-09-29T11:30:14.671Z,1.60
2022-09-29T11:32:52.381Z,1.80
2022-09-29T11:35:27.780Z,1.60
2022-09-29T11:38:16.636Z,1.35
2022-09-29T11:41:06.170Z,1.55
2022-09-29T11:43:33.361Z,1.48
2022-09-29T11:46:13.367Z,1.40
2022-09-29T11:48:57.344Z,1.30
2022-09-29T11:51:42.742Z,1.40
2022-09-29T11:54:28.446Z,1.40
2022-09-29T11:56:58.640Z,1.50
2022-09-29T11:59:41.379Z,1.20
2022-09-29T12:02:17.009Z,1.40
2022-09-29T12:04:47.376Z,1.63
2022-09-29T12:07:33.922Z,1.17
2022-09-29T12:10:13.578Z,1.42
2022-09-29T12:12:43.776Z,1.27
2022-09-29T12:15:20.251Z,1.92
2022-09-29T12:17:59.382Z,1.25
2022-09-29T12:20:26.788Z,1.13
2022-09-29T12:22:54.829Z,1.88
2022-09-29T12:25:25.029Z,0.93
2022-09-29T12:27:53.641Z,1.40
2022-09-29T12:30:27.530Z,1.13
2022-09-29T12:33:06.449Z,1.50
2022-09-29T12:35:39.973Z,1.10
2022-09-29T12:38:25.394Z,1.00
2022-09-29T12:40:52.466Z,1.70
2022-09-29T12:43:22.482Z,1.38
2022-09-29T12:45:57.761Z,1.23
2022-09-29T12:48:44.747Z,1.45
2022-09-29T12:51:14.894Z,0.95
2022-09-29T12:54:02.428Z,1.15
2022-09-29T12:59:02.971Z,1.33
2022-09-29T13:01:31.939Z,1.20
2022-09-29T13:04:19.332Z,1.30
2022-09-29T13:09:31.396Z,1.50
2022-09-29T13:12:13.930Z,1.30
2022-09-29T13:14:46.792Z,1.30
2022-09-29T13:17:30.227Z,0.98
2022-09-29T13:20:16.122Z,1.10
2022-09-29T13:22:59.715Z,1.00
2022-09-29T13:25:37.548Z,1.20
2022-09-29T13:28:22.111Z,1.13
2022-09-29T13:30:49.370Z,1.27
2022-09-29T13:33:24.399Z,1.20
2022-09-29T13:35:52.286Z,1.10
2022-09-29T13:38:19.335Z,1.00
2022-09-29T13:41:27.129Z,1.10
2022-09-29T13:43:54.179Z,1.10
2022-09-29T13:46:27.106Z,1.38
2022-09-29T13:49:03.639Z,1.10
2022-09-29T13:51:42.813Z,1.10
2022-09-29T13:54:26.920Z,1.33
2022-09-29T13:56:59.972Z,1.00
2022-09-29T13:59:28.835Z,1.17
2022-09-29T14:01:56.254Z,1.20
2022-09-29T14:04:35.532Z,1.08
2022-09-29T14:07:05.491Z,0.82
2022-09-29T14:09:35.931Z,1.00
2022-09-29T14:12:05.990Z,0.80
2022-09-29T14:14:35.806Z,1.00
2022-09-29T14:17:15.958Z,1.10
2022-09-29T14:20:06.754Z,1.27
2022-09-29T14:22:36.856Z,1.00
2022-09-29T14:25:10.554Z,1.00
2022-09-29T14:27:57.919Z,1.10
2022-09-29T14:33:00.215Z,0.85
2022-09-29T14:35:32.989Z,0.90
2022-09-29T14:38:18.731Z,0.90
2022-09-29T14:40:55.934Z,1.17
2022-09-29T14:43:25.716Z,0.80
2022-09-29T14:46:11.550Z,0.90
2022-09-29T14:49:03.535Z,0.93
2022-09-29T14:51:58.640Z,1.08
2022-09-29T14:54:25.775Z,0.82
2022-09-29T14:56:57.430Z,1.15
2022-09-29T14:59:44.818Z,1.10
2022-09-29T15:04:40.159Z,0.93
2022-09-29T15:07:12.453Z,0.80
2022-09-29T15:09:39.998Z,1.00
2022-09-29T15:12:15.055Z,0.95
2022-09-29T15:14:42.236Z,0.90
2022-09-29T15:17:23.633Z,1.00
2022-09-29T15:20:01.106Z,1.02
2022-09-29T15:22:28.450Z,1.20
2022-09-29T15:25:19.729Z,1.00
2022-09-29T15:27:49.757Z,0.70
2022-09-29T15:30:18.495Z,0.80
2022-09-29T15:32:49.681Z,0.80
2022-09-29T15:35:20.741Z,0.80
2022-09-29T15:37:50.917Z,0.90
2022-09-29T15:40:19.419Z,0.93
2022-09-29T15:42:46.816Z,0.93
2022-09-29T15:45:20.773Z,0.80
2022-09-29T15:47:47.916Z,1.00
2022-09-29T15:50:19.649Z,0.85
2022-09-29T15:52:47.056Z,0.80
2022-09-29T15:55:16.493Z,0.98
2022-09-29T15:57:54.684Z,0.88
2022-09-29T16:00:21.735Z,0.90
2022-09-29T16:03:09.693Z,1.00
2022-09-29T16:05:42.969Z,1.10
2022-09-29T16:08:20.183Z,0.80
2022-09-29T16:10:55.686Z,0.98
2022-09-29T16:13:31.061Z,0.90
2022-09-29T16:16:03.384Z,0.85
2022-09-29T16:18:30.534Z,0.80
2022-09-29T16:21:00.163Z,0.80
2022-09-29T16:23:29.147Z,1.00
2022-09-29T16:26:08.578Z,0.88
2022-09-29T16:28:37.282Z,0.60
2022-09-29T16:31:22.714Z,0.82
2022-09-29T16:33:56.886Z,1.00
2022-09-29T16:36:33.765Z,0.80
2022-09-29T16:39:01.567Z,0.95
2022-09-29T16:41:39.227Z,0.88
2022-09-29T16:44:14.276Z,1.08
2022-09-29T16:49:13.913Z,1.00
2022-09-29T16:51:43.912Z,0.70
2022-09-29T16:54:15.946Z,0.95
2022-09-29T16:56:44.284Z,1.10
2022-09-29T16:59:16.406Z,1.13
2022-09-29T17:01:44.182Z,0.70
2022-09-29T17:04:12.016Z,1.08
2022-09-29T17:06:40.492Z,0.93
2022-09-29T17:09:07.812Z,0.90
2022-09-29T17:11:35.553Z,1.10
2022-09-29T17:14:02.709Z,0.93
2022-09-29T17:16:31.556Z,0.98
2022-09-29T17:19:02.765Z,0.80
2022-09-29T17:21:32.120Z,0.90
2022-09-29T17:24:02.825Z,0.75
2022-09-29T17:26:54.590Z,0.77
2022-09-29T17:29:23.449Z,1.00
2022-09-29T17:34:22.846Z,1.20
2022-09-29T17:36:50.259Z,0.90
2022-09-29T17:39:17.432Z,1.05
2022-09-29T17:41:46.109Z,1.05
2022-09-29T17:44:13.322Z,0.90
2022-09-29T17:46:40.748Z,0.90
2022-09-29T17:49:14.535Z,1.05
2022-09-29T17:51:41.922Z,1.00
2022-09-29T17:54:09.099Z,1.00
2022-09-29T17:56:39.985Z,1.02
2022-09-29T17:59:07.176Z,1.00
2022-09-29T18:01:35.928Z,1.00
2022-09-29T18:04:03.515Z,1.00
2022-09-29T18:06:32.484Z,1.00
2022-09-29T18:11:27.208Z,1.35
2022-09-29T18:13:55.965Z,1.40
2022-09-29T18:16:23.817Z,1.15
2022-09-29T18:18:55.568Z,1.02
2022-09-29T18:21:25.149Z,1.27
2022-09-29T18:23:52.450Z,1.58
2022-09-29T18:26:21.263Z,1.58
2022-09-29T18:28:50.069Z,1.65
2022-09-29T18:31:24.335Z,1.38
2022-09-29T18:33:51.675Z,1.65
2022-09-29T18:36:18.806Z,1.60
2022-09-29T18:38:45.888Z,1.80
2022-09-29T18:41:18.347Z,1.60
2022-09-29T18:43:49.974Z,1.60
2022-09-29T18:46:22.625Z,1.73
2022-09-29T18:48:55.479Z,1.77
2022-09-29T18:51:28.182Z,1.80
2022-09-29T18:53:55.658Z,1.50
2022-09-29T18:56:23.194Z,1.67
2022-09-29T18:58:52.208Z,1.50
2022-09-29T19:01:25.144Z,1.60
2022-09-29T19:03:52.268Z,1.60
2022-09-29T19:06:21.702Z,1.67
2022-09-29T19:08:52.071Z,2.00
2022-09-29T19:11:25.275Z,1.63
2022-09-29T19:13:55.100Z,1.50
2022-09-29T19:16:22.878Z,1.70
2022-09-29T19:18:51.051Z,1.52
2022-09-29T19:21:19.072Z,1.88
2022-09-29T19:23:46.804Z,1.73
2022-09-29T19:26:15.786Z,1.70
2022-09-29T19:28:43.390Z,1.92
2022-09-29T19:31:12.370Z,1.60
2022-09-29T19:33:40.178Z,1.60
2022-09-29T19:36:08.791Z,1.88
2022-09-29T19:38:38.146Z,1.70
2022-09-29T19:41:05.330Z,1.55
2022-09-29T19:43:33.043Z,1.60
2022-09-29T19:46:06.543Z,1.77
2022-09-29T19:48:33.811Z,1.58
2022-09-29T19:51:19.563Z,1.90
2022-09-29T19:53:48.994Z,2.10
2022-09-29T19:56:17.249Z,2.05
2022-09-29T19:58:44.380Z,2.10
2022-09-29T20:01:12.240Z,2.30
2022-09-29T20:03:39.500Z,3.25
2022-09-29T20:06:06.853Z,3.97
2022-09-29T20:08:35.709Z,3.95
2022-09-29T20:11:10.934Z,4.85
2022-09-29T20:13:38.808Z,4.70
2022-09-29T20:16:06.871Z,3.97
2022-09-29T20:18:37.707Z,4.10
2022-09-29T20:21:12.664Z,3.33
2022-09-29T20:23:39.776Z,3.63
2022-09-29T20:26:10.219Z,3.55
2022-09-29T20:28:37.833Z,3.20
2022-09-29T20:31:07.633Z,4.18
2022-09-29T20:33:36.211Z,3.53
2022-09-29T20:36:04.105Z,3.75
2022-09-29T20:38:33.439Z,4.25
2022-09-29T20:41:04.385Z,4.78
2022-09-29T20:43:34.516Z,4.65
2022-09-29T20:46:03.864Z,4.32
2022-09-29T20:48:32.146Z,5.07
2022-09-29T20:51:03.865Z,4.38
2022-09-29T20:53:35.283Z,4.70
2022-09-29T20:56:03.078Z,3.90
2022-09-29T20:58:31.330Z,3.80
2022-09-29T21:01:08.421Z,4.25
2022-09-29T21:03:35.686Z,4.25
2022-09-29T21:06:02.759Z,4.20
2022-09-29T21:08:30.006Z,4.30
2022-09-29T21:11:03.795Z,4.90
2022-09-29T21:13:31.649Z,4.20
2022-09-29T21:15:59.490Z,4.45
2022-09-29T21:18:29.585Z,5.03
2022-09-29T21:20:59.058Z,4.00
2022-09-29T21:23:26.806Z,4.20
2022-09-29T21:26:01.339Z,4.38
2022-09-29T21:28:28.456Z,4.47
2022-09-29T21:31:02.475Z,5.20
2022-09-29T21:33:30.144Z,5.05
2022-09-29T21:36:00.795Z,4.70
2022-09-29T21:38:30.531Z,5.28
2022-09-29T21:41:07.867Z,4.75
2022-09-29T21:43:35.903Z,4.05
2022-09-29T21:46:04.872Z,4.22
2022-09-29T21:48:32.747Z,4.53
2022-09-29T21:51:03.095Z,4.10
2022-09-29T21:53:31.619Z,4.78
2022-09-29T21:56:18.006Z,4.63
2022-09-29T21:58:45.956Z,4.45
2022-09-29T22:01:13.343Z,5.25
2022-09-29T22:03:41.655Z,4.97
2022-09-29T22:06:12.802Z,4.88
2022-09-29T22:08:40.271Z,4.68
2022-09-29T22:11:07.855Z,4.78
2022-09-29T22:13:36.695Z,5.20
2022-09-29T22:16:05.212Z,4.35
2022-09-29T22:18:41.225Z,5.00
2022-09-29T22:21:10.007Z,4.78
2022-09-29T22:23:37.217Z,4.82
2022-09-29T22:26:04.589Z,4.60
2022-09-29T22:28:32.251Z,4.40
2022-09-29T22:31:09.913Z,4.72
2022-09-29T22:33:38.028Z,4.15
2022-09-29T22:36:05.377Z,3.92
2022-09-29T22:38:34.407Z,3.58
2022-09-29T22:41:01.548Z,4.13
2022-09-29T22:43:28.717Z,4.25
2022-09-29T22:45:55.798Z,3.97
2022-09-29T22:48:22.877Z,4.32
2022-09-29T22:50:50.661Z,4.10
2022-09-29T22:53:17.718Z,3.92
2022-09-29T22:55:44.846Z,4.50
2022-09-29T22:58:12.670Z,4.20
2022-09-29T23:00:40.689Z,4.03
2022-09-29T23:03:08.463Z,4.50
2022-09-29T23:05:36.068Z,4.32
2022-09-29T23:08:03.142Z,4.07
2022-09-29T23:10:30.205Z,3.85
2022-09-29T23:12:57.249Z,4.55
2022-09-29T23:15:24.335Z,4.28
2022-09-29T23:17:51.427Z,3.80
2022-09-29T23:20:18.618Z,4.10
2022-09-29T23:22:45.730Z,4.10
2022-09-29T23:25:12.888Z,3.55
2022-09-29T23:27:39.956Z,3.67
2022-09-29T23:30:07.339Z,4.00
2022-09-29T23:32:34.399Z,3.70
2022-09-29T23:35:01.462Z,4.18
2022-09-29T23:37:48.593Z,3.15
2022-09-29T23:40:15.805Z,3.95
2022-09-29T23:42:42.914Z,3.80
2022-09-29T23:45:10.312Z,3.67
2022-09-29T23:47:37.449Z,3.60
2022-09-29T23:50:06.291Z,3.38
2022-09-29T23:52:33.953Z,3.70
2022-09-29T23:55:01.022Z,4.72
2022-09-29T23:57:28.112Z,3.63
2022-09-29T23:59:55.202Z,3.47
